KBLM/BLM METAR and TAF weather

Enter ICAO airport designator
Station Type Date Time Source
KBLM METAR 2020/09/30 16:56 UTC NOAA

KBLM 301656Z AUTO 25012G18KT 10SM FEW037 19/11 A2979 RMK AO2 SLP086 T01940106


Station Type Date Time Source
KBLM Decoded METAR 2020/09/30 16:56 UTC NOAA

Belmar-Farmingdale, NJ, United States (KBLM) 40-11N 074-08W
Sep 30, 2020 - 12:56 PM EDT / 2020.09.30 1656 UTC
Wind: from the WSW (250 degrees) at 14 MPH (12 KT) gusting to 21 MPH (18 KT):0
Visibility: 10 mile(s):0
Sky conditions: mostly clear
Temperature: 66.9 F (19.4 C)
Dew Point: 51.1 F (10.6 C)
Relative Humidity: 56%
Pressure (altimeter): 29.79 in. Hg (1008 hPa)
ob: KBLM 301656Z AUTO 25012G18KT 10SM FEW037 19/11 A2979 RMK AO2 SLP086 T01940106
cycle: 17

Station Type Date Time Source
KBLM TAF UTC NOAA

Error!

Example: see airport list